Latest Coastal Weather Observations for Burnie Port

IDT60701

Issued at 3:51 pm EST Saturday 23 May 2015 (issued every 10 minutes, with the page automatically refreshed every 10 minutes)

About coastal observations | Map of coastal stations | Coastal observations for TAS | Marine services | Other Formats
Station Details ID: 091344 Name: BURNIE NTC AWS Lat: -41.05 Lon: 145.91 Height: 0.0 m
Data from the previous 72 hours. | See also: Recent months for locations in Tasmania
Date/Time
EST
Temp

°C
Wind Pressure Rain
since 9am
mm
Weather Cloud Vis
km
Sea
Height
m
Swell
Dir
 
Speed
knots
Gust
knots
hPa Trend Height
m
Period
s
Dir
23/03:30pm 14.0 WSW 6 11 1027.8 - - - - - - - - -
23/03:00pm 14.0 WSW 7 15 1027.6 - - - - - - - - -
23/02:30pm 14.0 SW 11 17 1027.7 - - - - - - - - -
23/02:00pm 14.1 WSW 8 16 1027.8 - - - - - - - - -
23/01:30pm 14.0 WSW 7 13 1027.9 - - - - - - - - -
23/01:00pm 13.8 WSW 7 13 1028.1 - - - - - - - - -
23/12:30pm 13.4 WSW 9 14 1028.2 - - - - - - - - -
23/12:00pm 13.1 SW 8 16 1028.5 - - - - - - - - -
23/11:30am 12.7 WSW 8 12 1028.9 - - - - - - - - -
23/11:00am 12.3 SW 6 10 1029.5 - - - - - - - - -
23/10:30am 11.7 WSW 2 7 1029.5 - - - - - - - - -
23/10:00am 10.9 N 5 6 1029.5 - - - - - - - - -
23/09:30am 10.5 N 2 5 1029.6 - - - - - - - - -
23/09:00am 10.0 N 1 3 1029.5 - - - - - - - - -
23/08:30am 9.3 NW 3 5 1029.3 - - - - - - - - -
23/08:00am 8.1 SW 1 4 1028.9 - - - - - - - - -
23/07:30am 6.4 SW 2 4 1028.6 - - - - - - - - -
23/07:00am 7.7 WNW 5 6 1028.6 - - - - - - - - -
23/06:30am 7.8 W 4 5 1028.4 - - - - - - - - -
23/06:00am 7.5 WSW 4 6 1028.2 - - - - - - - - -
23/05:30am 7.5 W 5 8 1028.1 - - - - - - - - -
23/05:00am 7.7 WNW 3 5 1028.0 - - - - - - - - -
23/04:30am 7.9 W 6 8 1028.1 - - - - - - - - -
23/04:00am 7.9 WSW 12 16 1027.7 - - - - - - - - -
23/03:30am 8.3 WSW 12 16 1027.6 - - - - - - - - -
23/03:00am 7.8 W 8 12 1027.9 - - - - - - - - -
23/02:30am 7.9 W 7 11 1028.1 - - - - - - - - -
23/02:00am 8.0 WNW 8 11 1028.1 - - - - - - - - -
23/01:30am 8.4 WNW 8 12 1028.2 - - - - - - - - -
23/01:00am 8.5 W 8 11 1028.2 - - - - - - - - -
23/12:30am 8.6 W 8 11 1028.3 - - - - - - - - -
23/12:00am 8.8 W 6 8 1028.8 - - - - - - - - -
 
Date/Time
EST
Temp

°C
Wind Pressure Rain
since 9am
mm
Weather Cloud Vis
km
Sea
Height
m
Swell
Dir
 
Speed
knots
Gust
knots
hPa Trend Height
m
Period
s
Dir
22/11:30pm 8.6 WNW 5 7 1028.7 - - - - - - - - -
22/11:00pm 8.7 W 6 7 1028.7 - - - - - - - - -
22/10:30pm 8.5 WSW 4 7 1028.9 - - - - - - - - -
22/10:00pm 8.2 W 7 11 1029.1 - - - - - - - - -
22/09:30pm 8.1 WNW 6 12 1029.0 - - - - - - - - -
22/09:00pm 8.3 WNW 7 10 1029.0 - - - - - - - - -
22/08:30pm 8.6 W 6 9 1029.1 - - - - - - - - -
22/08:00pm 9.1 W 6 9 1029.2 - - - - - - - - -
22/07:30pm 9.2 WSW 7 10 1029.0 - - - - - - - - -
22/07:00pm 9.3 WSW 7 11 1028.7 - - - - - - - - -
22/06:30pm 9.3 SW 10 14 1028.4 - - - - - - - - -
22/06:00pm 9.7 SW 11 15 1028.2 - - - - - - - - -
22/05:30pm 10.1 SW 12 19 1027.9 - - - - - - - - -
22/05:00pm 10.5 SW 15 23 1027.5 - - - - - - - - -
22/04:30pm 11.1 SW 13 19 1027.3 - - - - - - - - -
22/04:00pm 11.6 SW 12 18 1027.2 - - - - - - - - -
22/03:30pm 12.2 SSW 10 17 1027.2 - - - - - - - - -
22/03:00pm 12.4 SSW 12 20 1027.0 - - - - - - - - -
22/02:30pm 12.3 SW 11 17 1026.9 - - - - - - - - -
22/02:00pm 12.2 SW 10 17 1027.0 - - - - - - - - -
22/01:30pm 12.3 SSW 10 18 1027.2 - - - - - - - - -
22/01:00pm 12.1 SSW 13 18 1027.3 - - - - - - - - -
22/12:30pm 11.9 SW 9 16 1027.6 - - - - - - - - -
22/12:00pm 11.8 SW 8 13 1027.9 - - - - - - - - -
22/11:30am 11.1 SW 9 14 1028.4 - - - - - - - - -
22/11:00am 11.0 SW 9 13 1028.8 - - - - - - - - -
22/10:30am 10.6 SSW 10 15 1028.9 - - - - - - - - -
22/10:00am 10.1 SW 9 15 1028.8 - - - - - - - - -
22/09:30am 9.7 SW 9 13 1028.9 - - - - - - - - -
22/09:00am 9.1 SSW 10 14 1029.0 - - - - - - - - -
22/08:30am 8.5 SW 6 9 1028.9 - - - - - - - - -
22/08:00am 7.8 SW 6 9 1028.7 - - - - - - - - -
22/07:30am 8.1 SW 8 12 1028.7 - - - - - - - - -
22/07:00am 7.8 SW 10 13 1028.5 - - - - - - - - -
22/06:30am 7.8 SW 12 17 1028.3 - - - - - - - - -
22/06:00am 7.6 SW 10 15 1027.9 - - - - - - - - -
22/05:30am 7.7 SW 4 9 1027.9 - - - - - - - - -
22/05:00am 7.7 S 5 10 1027.8 - - - - - - - - -
22/04:30am 8.3 SSW 4 7 1027.9 - - - - - - - - -
22/04:00am 8.8 SW 4 5 1027.7 - - - - - - - - -
22/03:30am 9.2 SW 6 8 1027.8 - - - - - - - - -
22/03:00am 9.9 SSW 4 11 1027.9 - - - - - - - - -
22/02:30am 10.1 S 1 2 1027.9 - - - - - - - - -
22/02:00am 10.0 SSW 3 4 1027.9 - - - - - - - - -
22/01:30am 10.3 SSW 2 3 1027.9 - - - - - - - - -
22/01:00am 10.1 S 3 4 1027.8 - - - - - - - - -
22/12:30am 10.5 SSE 5 7 1027.8 - - - - - - - - -
22/12:00am 10.7 S 5 7 1028.0 - - - - - - - - -
 
Date/Time
EST
Temp

°C
Wind Pressure Rain
since 9am
mm
Weather Cloud Vis
km
Sea
Height
m
Swell
Dir
 
Speed
knots
Gust
knots
hPa Trend Height
m
Period
s
Dir
21/11:30pm 10.7 SSE 4 6 1027.9 - - - - - - - - -
21/11:00pm 10.9 S 4 5 1027.9 - - - - - - - - -
21/10:30pm 11.0 SSE 4 5 1027.9 - - - - - - - - -
21/10:00pm 11.3 S 5 7 1027.8 - - - - - - - - -
21/09:30pm 11.4 S 5 8 1027.6 - - - - - - - - -
21/09:00pm 11.6 SE 9 12 1027.5 - - - - - - - - -
21/08:30pm 11.7 SE 8 11 1027.2 - - - - - - - - -
21/08:00pm 11.7 S 5 7 1027.2 - - - - - - - - -
21/07:30pm 11.8 S 5 7 1027.0 - - - - - - - - -
21/07:00pm 12.0 S 4 6 1026.7 - - - - - - - - -
21/06:30pm 11.2 SSW 4 5 1026.5 - - - - - - - - -
21/06:00pm 11.8 SSW 2 3 1026.2 - - - - - - - - -
21/05:30pm 13.0 ENE 3 5 1025.7 - - - - - - - - -
21/05:00pm 13.0 SW 2 4 1025.4 - - - - - - - - -
21/04:30pm 13.0 ENE 5 7 1025.0 - - - - - - - - -
21/04:00pm 13.0 E 5 7 1024.8 - - - - - - - - -
21/03:30pm 12.9 E 5 7 1024.5 - - - - - - - - -
21/03:00pm 12.8 E 6 9 1024.2 - - - - - - - - -
21/02:30pm 12.6 E 7 9 1024.0 - - - - - - - - -
21/02:00pm 12.4 E 7 10 1023.8 - - - - - - - - -
21/01:30pm 12.3 E 10 12 1023.6 - - - - - - - - -
21/01:00pm 12.2 E 10 13 1023.7 - - - - - - - - -
21/12:30pm 12.2 E 11 14 1023.7 - - - - - - - - -
21/12:00pm 12.1 ESE 13 15 1023.9 - - - - - - - - -
21/11:30am 11.3 E 9 11 1024.2 - - - - - - - - -
21/11:00am 10.9 E 4 6 1024.2 - - - - - - - - -
21/10:30am 11.2 ENE 2 4 1024.0 - - - - - - - - -
21/10:00am 11.2 ESE 2 3 1023.6 - - - - - - - - -
21/09:30am 10.4 SE 5 7 1023.3 - - - - - - - - -
21/09:00am 9.7 SSE 7 10 1022.9 - - - - - - - - -
21/08:30am 8.3 SE 5 8 1022.6 - - - - - - - - -
21/08:00am 8.7 SSW 11 13 1022.0 - - - - - - - - -
21/07:30am 8.3 SSW 8 11 1021.6 - - - - - - - - -
21/07:00am 8.4 SSW 9 11 1021.1 - - - - - - - - -
21/06:30am 8.0 S 8 10 1020.8 - - - - - - - - -
21/06:00am 7.7 SSW 8 10 1020.3 - - - - - - - - -
21/05:30am 7.7 SSW 9 12 1019.9 - - - - - - - - -
21/05:00am 8.0 SSW 8 11 1019.2 - - - - - - - - -
21/04:30am 8.1 SSW 8 13 1018.9 - - - - - - - - -
21/04:00am 8.0 S 8 11 1018.4 - - - - - - - - -
21/03:30am 8.4 SW 10 14 1018.3 - - - - - - - - -
21/03:00am 8.5 SSW 10 15 1018.2 - - - - - - - - -
21/02:30am 8.5 SSW 10 13 1018.0 - - - - - - - - -
21/02:00am 8.4 SSW 11 16 1017.8 - - - - - - - - -

Other Formats:

Comma delimited format used in spreadsheet applications
http://www.bom.gov.au/fwo/IDT60701/IDT60701.95963.axf

JavaScript Object Notation format (JSON) in row-major order
http://www.bom.gov.au/fwo/IDT60701/IDT60701.95963.json